Time;durP1;ratioP1;P1;durP2;ratioP2;P2;SDS_P1;SDS_P2;PMS_P1;PMS_P2;Temp;Humidity;BMP_temperature;BMP_pressure;BME280_temperature;BME280_humidity;BME280_pressure;Samples;Min_cycle;Max_cycle;Signal;HPM_P1;HPM_P2
2021/08/21 00:00:56;;;;;;;1.10;1.00;;;;;;;11.37;100.00;101277.00;5052273;28;20057;-85
2021/08/21 00:03:30;;;;;;;2.03;0.93;;;;;;;11.36;100.00;101280.81;5053609;28;20049;-86
2021/08/21 00:05:58;;;;;;;2.55;1.10;;;;;;;11.35;100.00;101282.72;5053803;28;20102;-86
2021/08/21 00:08:31;;;;;;;1.77;1.10;;;;;;;11.31;100.00;101278.91;5046840;28;20100;-87
2021/08/21 00:11:04;;;;;;;1.92;1.10;;;;;;;11.28;100.00;101279.44;5047528;28;20041;-87
2021/08/21 00:13:37;;;;;;;1.35;1.20;;;;;;;11.28;100.00;101275.91;5053098;28;20049;-86
2021/08/21 00:16:06;;;;;;;1.35;1.00;;;;;;;11.29;100.00;101281.06;5033251;28;20050;-86
2021/08/21 00:18:39;;;;;;;1.42;1.02;;;;;;;11.20;100.00;101269.88;5040348;28;20057;-85
2021/08/21 00:21:13;;;;;;;1.40;1.15;;;;;;;11.22;100.00;101275.88;5051484;28;20059;-85
2021/08/21 00:23:48;;;;;;;1.60;1.30;;;;;;;11.21;100.00;101276.16;5053809;28;20056;-86
2021/08/21 00:26:22;;;;;;;1.45;1.08;;;;;;;11.24;100.00;101289.22;5053496;28;20060;-86
2021/08/21 00:28:56;;;;;;;1.95;1.20;;;;;;;11.25;100.00;101279.97;5053384;28;20041;-86
2021/08/21 00:31:31;;;;;;;1.35;1.00;;;;;;;11.25;100.00;101274.53;5050650;28;20045;-86
2021/08/21 00:33:59;;;;;;;1.02;0.90;;;;;;;11.21;100.00;101281.59;5047909;28;20041;-87
2021/08/21 00:36:33;;;;;;;1.15;0.90;;;;;;;11.22;100.00;101280.53;5031607;28;20413;-86
2021/08/21 00:39:06;;;;;;;1.38;1.00;;;;;;;11.12;100.00;101270.41;5038705;28;20052;-87
2021/08/21 00:41:42;;;;;;;1.00;0.90;;;;;;;11.09;100.00;101281.03;5047764;28;20402;-87
2021/08/21 00:44:16;;;;;;;1.90;1.08;;;;;;;11.06;100.00;101285.09;5038495;28;20041;-86
2021/08/21 00:46:59;;;;;;;1.95;1.00;;;;;;;11.02;100.00;101284.00;5045704;28;20111;-86
2021/08/21 00:49:33;;;;;;;1.20;1.00;;;;;;;11.01;100.00;101287.81;5051344;28;20044;-86
2021/08/21 00:52:07;;;;;;;1.65;1.00;;;;;;;10.99;100.00;101285.38;5049427;28;20061;-85
2021/08/21 00:54:41;;;;;;;1.25;0.90;;;;;;;11.00;100.00;101294.34;5051200;28;20060;-86
2021/08/21 00:57:17;;;;;;;1.10;1.00;;;;;;;10.88;100.00;101276.34;5051254;28;20052;-86
2021/08/21 00:59:52;;;;;;;1.57;1.07;;;;;;;10.93;100.00;101286.44;5048718;28;20041;-85
2021/08/21 01:02:25;;;;;;;1.10;0.90;;;;;;;10.87;100.00;101287.50;5047067;28;20057;-86
2021/08/21 01:04:59;;;;;;;1.67;1.10;;;;;;;10.92;100.00;101290.22;5031487;28;20410;-85
2021/08/21 01:07:36;;;;;;;1.00;0.90;;;;;;;10.93;100.00;101288.34;5031380;28;20363;-85
2021/08/21 01:10:12;;;;;;;1.58;1.02;;;;;;;10.88;100.00;101295.41;5050745;28;20052;-86
2021/08/21 01:12:54;;;;;;;1.27;1.10;;;;;;;10.85;100.00;101293.22;5051155;28;20053;-86
2021/08/21 01:15:28;;;;;;;1.23;1.10;;;;;;;10.87;100.00;101285.59;5050987;28;20049;-86
2021/08/21 01:18:08;;;;;;;1.60;1.13;;;;;;;10.86;100.00;101289.41;5031121;28;20037;-86
2021/08/21 01:20:41;;;;;;;1.67;1.27;;;;;;;10.88;100.00;101291.84;5029740;28;20505;-85
2021/08/21 01:23:13;;;;;;;1.17;1.00;;;;;;;10.84;100.00;101286.13;5032849;28;20061;-85
2021/08/21 01:26:13;;;;;;;1.83;1.13;;;;;;;10.76;100.00;101275.75;5049563;28;20053;-85
2021/08/21 01:29:09;;;;;;;1.25;1.05;;;;;;;10.79;100.00;101288.84;5032752;28;20041;-86
2021/08/21 01:32:01;;;;;;;1.52;1.10;;;;;;;10.74;100.00;101285.28;5030558;28;20057;-85
2021/08/21 01:34:35;;;;;;;1.77;1.20;;;;;;;10.72;100.00;101285.53;5044534;28;20056;-85
2021/08/21 01:37:08;;;;;;;1.77;1.20;;;;;;;10.70;100.00;101285.81;5047649;28;20493;-86
2021/08/21 01:40:11;;;;;;;1.73;1.20;;;;;;;10.63;100.00;101281.69;4994744;28;20523;-85
2021/08/21 01:42:45;;;;;;;1.70;1.20;;;;;;;10.57;100.00;101278.13;5030233;28;20057;-85
2021/08/21 01:45:19;;;;;;;1.20;1.10;;;;;;;10.59;100.00;101280.56;5039735;28;20067;-86
2021/08/21 01:47:53;;;;;;;1.83;1.30;;;;;;;10.59;100.00;101288.75;5051535;28;20052;-85
2021/08/21 01:50:26;;;;;;;1.27;1.10;;;;;;;10.61;100.00;101292.03;5043853;28;20049;-86
2021/08/21 01:52:59;;;;;;;1.80;1.15;;;;;;;10.58;100.00;101295.25;5044745;28;20049;-86
2021/08/21 01:55:36;;;;;;;1.53;1.13;;;;;;;10.58;100.00;101293.38;5051530;28;20048;-86
2021/08/21 01:58:19;;;;;;;1.73;1.27;;;;;;;10.53;100.00;101287.91;5035345;28;20680;-86
2021/08/21 02:01:03;;;;;;;1.63;1.30;;;;;;;10.49;100.00;101284.88;5030427;28;20053;-86
2021/08/21 02:03:56;;;;;;;1.75;1.20;;;;;;;10.45;100.00;101285.69;5032333;28;20053;-86
2021/08/21 02:06:25;;;;;;;2.08;1.10;;;;;;;10.44;100.00;101292.19;5047953;28;20041;-86
2021/08/21 02:08:53;;;;;;;2.80;1.20;;;;;;;10.45;100.00;101297.38;5041820;28;20045;-86
2021/08/21 02:11:30;;;;;;;1.30;1.10;;;;;;;10.43;100.00;101290.59;5042912;28;20053;-86
2021/08/21 02:14:03;;;;;;;1.45;1.10;;;;;;;10.45;100.00;101291.13;5028778;28;20513;-85
2021/08/21 02:16:39;;;;;;;1.73;1.20;;;;;;;10.44;100.00;101297.63;5054419;28;20056;-86
2021/08/21 02:19:12;;;;;;;2.28;1.17;;;;;;;10.41;100.00;101296.25;5048096;28;20045;-86
2021/08/21 02:22:15;;;;;;;1.75;1.20;;;;;;;10.36;100.00;101288.91;5028715;28;20413;-86
2021/08/21 02:24:52;;;;;;;1.73;1.20;;;;;;;10.34;100.00;101296.53;5048922;28;20056;-86
2021/08/21 02:27:29;;;;;;;1.48;1.20;;;;;;;10.31;100.00;101280.66;5038904;28;20049;-86
2021/08/21 02:29:57;;;;;;;2.78;1.30;;;;;;;10.40;100.00;101285.66;5041571;28;20692;-85
2021/08/21 02:32:34;;;;;;;1.88;1.33;;;;;;;10.35;100.00;101276.38;5052378;28;20406;-86
2021/08/21 02:35:08;;;;;;;1.60;1.30;;;;;;;10.36;100.00;101282.66;5052169;28;20067;-86
2021/08/21 02:37:37;;;;;;;1.27;1.10;;;;;;;10.36;100.00;101283.44;5042770;28;20494;-85
2021/08/21 02:40:12;;;;;;;2.10;1.33;;;;;;;10.38;100.00;101275.03;5039394;28;20057;-85
2021/08/21 02:42:45;;;;;;;2.05;1.30;;;;;;;10.38;100.00;101285.91;5048862;28;20067;-86
2021/08/21 02:45:19;;;;;;;2.22;1.30;;;;;;;10.42;100.00;101283.50;5046625;28;20054;-93
2021/08/21 02:47:53;;;;;;;2.08;1.38;;;;;;;10.47;100.00;101278.09;5033981;28;20053;-86
2021/08/21 02:50:26;;;;;;;1.60;1.30;;;;;;;10.41;100.00;101282.66;5058150;28;20067;-86
2021/08/21 02:53:00;;;;;;;1.60;1.30;;;;;;;10.28;100.00;101274.94;5037331;28;20053;-86
2021/08/21 02:55:34;;;;;;;3.40;1.30;;;;;;;10.19;100.00;101261.00;5052539;28;20053;-87
2021/08/21 02:58:07;;;;;;;1.50;1.20;;;;;;;10.29;100.00;101282.00;5053348;28;20056;-87
2021/08/21 03:00:42;;;;;;;1.52;1.17;;;;;;;10.28;100.00;101283.91;5049370;28;20049;-86
2021/08/21 03:03:17;;;;;;;2.00;1.45;;;;;;;10.21;100.00;101275.19;5047615;28;20509;-86
2021/08/21 03:05:53;;;;;;;3.47;1.80;;;;;;;10.26;100.00;101279.81;5052252;28;20049;-86
2021/08/21 03:08:28;;;;;;;2.55;1.30;;;;;;;10.22;100.00;101282.25;5052045;28;20057;-85
2021/08/21 03:11:01;;;;;;;1.80;1.40;;;;;;;10.24;100.00;101279.28;5051764;28;20049;-87
2021/08/21 03:13:44;;;;;;;1.52;1.30;;;;;;;10.20;100.00;101287.97;5052043;28;20067;-86
2021/08/21 03:16:17;;;;;;;2.63;1.38;;;;;;;10.18;100.00;101284.69;5050729;28;20136;-87
2021/08/21 03:18:52;;;;;;;1.70;1.30;;;;;;;10.14;100.00;101282.75;5049954;28;20390;-85
2021/08/21 03:21:21;;;;;;;1.73;1.27;;;;;;;10.16;100.00;101288.75;5050931;28;20053;-86
2021/08/21 03:23:55;;;;;;;2.67;1.60;;;;;;;10.15;100.00;101292.53;5051675;28;20049;-85
2021/08/21 03:26:28;;;;;;;3.10;1.42;;;;;;;10.17;100.00;101291.19;5034943;28;20056;-86
2021/08/21 03:29:03;;;;;;;1.75;1.30;;;;;;;10.15;100.00;101295.25;5051739;28;20060;-85
2021/08/21 03:31:36;;;;;;;1.50;1.17;;;;;;;10.09;100.00;101288.97;5052533;28;20052;-87
2021/08/21 03:34:11;;;;;;;2.30;1.52;;;;;;;10.16;100.00;101292.28;5047516;28;20496;-87
2021/08/21 03:36:45;;;;;;;2.65;1.48;;;;;;;10.12;100.00;101293.06;5045336;28;20052;-85
2021/08/21 03:39:13;;;;;;;3.28;1.50;;;;;;;10.07;100.00;101301.19;5050941;28;20068;-84
2021/08/21 03:41:48;;;;;;;2.40;1.52;;;;;;;10.04;100.00;101297.09;5047490;28;20050;-86
2021/08/21 03:44:18;;;;;;;2.28;1.42;;;;;;;10.06;100.00;101305.00;5049326;28;20048;-86
2021/08/21 03:46:53;;;;;;;2.22;1.50;;;;;;;9.97;100.00;101297.31;5042587;28;20050;-86
2021/08/21 03:49:25;;;;;;;2.75;1.50;;;;;;;10.00;100.00;101310.38;5049719;28;20048;-86
2021/08/21 03:51:59;;;;;;;2.60;1.67;;;;;;;9.98;100.00;101298.13;5046526;28;20071;-85
2021/08/21 03:54:35;;;;;;;3.35;1.58;;;;;;;10.04;100.00;101308.78;5051187;28;20056;-86
2021/08/21 03:57:08;;;;;;;2.08;1.48;;;;;;;9.96;100.00;101292.16;5051422;28;20068;-86
2021/08/21 03:59:42;;;;;;;2.63;1.58;;;;;;;10.02;100.00;101312.84;5051573;28;20044;-86
2021/08/21 04:02:15;;;;;;;2.75;1.60;;;;;;;9.98;100.00;101317.16;5049418;28;20060;-88
2021/08/21 04:04:51;;;;;;;2.85;1.73;;;;;;;10.03;100.00;101328.09;5050609;28;20045;-87
2021/08/21 04:07:26;;;;;;;2.90;1.70;;;;;;;9.96;100.00;101331.03;5052831;28;20041;-87
2021/08/21 04:09:54;;;;;;;2.45;1.33;;;;;;;10.03;100.00;101339.78;5050090;28;20064;-87
2021/08/21 04:12:28;;;;;;;1.83;1.40;;;;;;;10.02;100.00;101340.03;5050483;28;20057;-87
2021/08/21 04:15:12;;;;;;;2.67;1.67;;;;;;;10.06;100.00;101340.34;5050469;28;20045;-88
2021/08/21 04:17:46;;;;;;;3.28;1.67;;;;;;;10.08;100.00;101349.06;5051329;28;20056;-88
2021/08/21 04:20:23;;;;;;;3.28;1.85;;;;;;;10.12;100.00;101331.13;5050851;28;20417;-87
2021/08/21 04:22:57;;;;;;;4.28;1.92;;;;;;;10.25;100.00;101349.75;5035978;28;20045;-87
2021/08/21 04:25:30;;;;;;;2.47;1.65;;;;;;;10.26;100.00;101345.94;5040918;28;20053;-86
2021/08/21 04:28:07;;;;;;;2.77;1.67;;;;;;;10.31;100.00;101347.88;5044708;28;20078;-87
2021/08/21 04:30:35;;;;;;;2.38;1.60;;;;;;;10.38;100.00;101343.88;5050635;28;20044;-87
2021/08/21 04:33:08;;;;;;;2.15;1.52;;;;;;;10.40;100.00;101348.22;5050208;28;20059;-86
2021/08/21 04:35:40;;;;;;;2.50;1.65;;;;;;;10.50;100.00;101349.09;5050069;28;20870;-86
2021/08/21 04:38:13;;;;;;;2.47;1.52;;;;;;;10.51;100.00;101348.03;5050429;28;20057;-87
2021/08/21 04:40:55;;;;;;;2.33;1.50;;;;;;;10.55;100.00;101349.16;5050240;28;20049;-87
2021/08/21 04:43:28;;;;;;;3.00;1.77;;;;;;;10.61;100.00;101355.44;5051678;28;20436;-86
2021/08/21 04:46:05;;;;;;;2.75;1.63;;;;;;;10.65;100.00;101350.31;5048188;28;20048;-86
2021/08/21 04:48:34;;;;;;;2.13;1.50;;;;;;;10.66;100.00;101336.44;5050679;28;20473;-87
2021/08/21 04:51:08;;;;;;;2.30;1.42;;;;;;;10.75;100.00;101355.78;5049666;28;20053;-86
2021/08/21 04:53:42;;;;;;;2.55;1.50;;;;;;;10.82;100.00;101353.63;5051797;28;20045;-86
2021/08/21 04:56:15;;;;;;;3.00;1.52;;;;;;;10.83;100.00;101352.56;5049298;28;20045;-86
2021/08/21 04:59:14;;;;;;;2.50;1.60;;;;;;;10.90;100.00;101363.22;5047465;28;20073;-87
2021/08/21 05:01:44;;;;;;;2.42;1.50;;;;;;;10.91;100.00;101353.13;5049418;28;20061;-87
2021/08/21 05:04:20;;;;;;;1.98;1.45;;;;;;;10.95;100.00;101346.06;5049681;28;20059;-86
2021/08/21 05:06:54;;;;;;;2.20;1.60;;;;;;;10.99;100.00;101339.84;5049039;28;20104;-87
2021/08/21 05:09:28;;;;;;;2.03;1.30;;;;;;;11.06;100.00;101345.03;5049900;28;20897;-86
2021/08/21 05:12:08;;;;;;;2.88;1.70;;;;;;;11.08;100.00;101347.50;5048704;28;20060;-87
2021/08/21 05:14:50;;;;;;;2.17;1.48;;;;;;;11.14;100.00;101355.41;5048738;28;20049;-87
2021/08/21 05:17:19;;;;;;;2.58;1.60;;;;;;;11.19;100.00;101349.16;5041510;28;20041;-86
2021/08/21 05:20:17;;;;;;;2.08;1.50;;;;;;;11.37;100.00;101354.13;5042917;28;20053;-87
2021/08/21 05:23:06;;;;;;;2.10;1.35;;;;;;;11.40;100.00;101350.03;5046537;28;20044;-86
2021/08/21 05:25:42;;;;;;;1.73;1.05;;;;;;;11.67;100.00;101346.25;5040488;28;20061;-87
2021/08/21 05:28:19;;;;;;;1.45;1.08;;;;;;;11.69;100.00;101334.00;5048290;28;20053;-86
2021/08/21 05:30:55;;;;;;;1.23;1.10;;;;;;;11.74;100.00;101339.47;5046216;28;20053;-86
2021/08/21 05:33:28;;;;;;;1.25;1.00;;;;;;;11.77;100.00;101340.03;5051219;28;20060;-86
2021/08/21 05:35:57;;;;;;;2.28;1.30;;;;;;;11.57;100.00;101330.72;5041744;28;20045;-85
2021/08/21 05:38:28;;;;;;;2.55;1.20;;;;;;;11.55;100.00;101333.72;5037997;28;20497;-86
2021/08/21 05:41:02;;;;;;;1.30;0.90;;;;;;;11.50;100.00;101354.69;5047180;28;20052;-86
2021/08/21 05:43:31;;;;;;;1.80;1.40;;;;;;;11.62;100.00;101358.00;5040090;28;20383;-87
2021/08/21 05:46:04;;;;;;;1.88;1.30;;;;;;;11.85;100.00;101369.50;5045126;28;20061;-86
2021/08/21 05:48:37;;;;;;;1.98;1.48;;;;;;;11.96;100.00;101370.31;5049589;28;20051;-87
2021/08/21 05:51:12;;;;;;;1.90;1.50;;;;;;;12.14;100.00;101371.69;5046516;28;20056;-84
2021/08/21 05:53:41;;;;;;;1.98;1.40;;;;;;;12.28;100.00;101380.97;5046308;28;20059;-87
2021/08/21 05:56:14;;;;;;;1.92;1.48;;;;;;;12.35;100.00;101380.69;5047769;28;20048;-85
2021/08/21 05:59:12;;;;;;;1.38;1.13;;;;;;;12.28;100.00;101363.75;5039266;28;20049;-89
2021/08/21 06:01:40;;;;;;;1.33;1.10;;;;;;;12.53;100.00;101373.84;5041495;28;20814;-89
2021/08/21 06:04:22;;;;;;;2.97;1.23;;;;;;;12.49;100.00;101367.31;5046328;28;20053;-88
2021/08/21 06:07:00;;;;;;;2.00;1.30;;;;;;;12.60;100.00;101363.44;5043476;28;20409;-88
2021/08/21 06:09:39;;;;;;;2.42;1.50;;;;;;;12.40;100.00;101318.72;5047162;28;20060;-86
2021/08/21 06:12:12;;;;;;;2.42;1.40;;;;;;;12.86;100.00;101306.81;5046547;28;20064;-86
2021/08/21 06:14:46;;;;;;;1.80;1.33;;;;;;;13.17;100.00;101317.59;5052973;28;20060;-87
2021/08/21 06:17:20;;;;;;;1.52;1.13;;;;;;;13.82;100.00;101371.34;5048002;28;20555;-87
2021/08/21 06:19:56;;;;;;;1.60;1.00;;;;;;;13.61;99.39;101371.50;5043665;28;20044;-85
2021/08/21 06:22:41;;;;;;;1.30;1.02;;;;;;;13.02;100.00;101321.25;5042531;28;20052;-87
2021/08/21 06:25:19;;;;;;;1.83;1.10;;;;;;;13.27;100.00;101374.97;5048278;28;20049;-87
2021/08/21 06:27:52;;;;;;;0.93;0.90;;;;;;;13.69;100.00;101385.69;5043829;28;20435;-86
2021/08/21 06:30:21;;;;;;;1.08;0.88;;;;;;;13.54;100.00;101389.34;5044523;28;20072;-87
2021/08/21 06:32:54;;;;;;;1.30;0.85;;;;;;;13.64;100.00;101378.31;5048668;28;20049;-86
2021/08/21 06:35:28;;;;;;;1.48;0.90;;;;;;;13.89;99.54;101384.72;5047162;28;20481;-87
2021/08/21 06:38:02;;;;;;;0.80;0.80;;;;;;;13.86;99.90;101379.81;5045713;28;20041;-87
2021/08/21 06:40:31;;;;;;;1.27;0.90;;;;;;;13.86;99.94;101391.56;5039540;28;20069;-87
2021/08/21 06:43:05;;;;;;;1.25;1.08;;;;;;;13.85;100.00;101394.59;5047437;28;20057;-87
2021/08/21 06:45:49;;;;;;;1.65;0.85;;;;;;;13.92;100.00;101389.63;5040666;28;20045;-88
2021/08/21 06:48:22;;;;;;;0.60;0.60;;;;;;;13.90;100.00;101400.84;5044452;28;20045;-87
2021/08/21 06:50:55;;;;;;;1.00;0.80;;;;;;;13.94;99.84;101390.97;5046008;28;20049;-88
2021/08/21 06:53:29;;;;;;;0.95;0.80;;;;;;;14.08;100.00;101376.66;5043044;28;20053;-88
2021/08/21 06:56:05;;;;;;;1.40;0.80;;;;;;;14.75;93.41;101385.06;5041246;28;20057;-87
2021/08/21 06:58:38;;;;;;;0.82;0.70;;;;;;;14.82;96.42;101398.44;5046958;28;20041;-88
2021/08/21 07:01:11;;;;;;;0.70;0.70;;;;;;;14.72;91.58;101399.34;5047376;28;20048;-87
2021/08/21 07:03:40;;;;;;;0.90;0.60;;;;;;;15.03;91.92;101392.72;5048481;28;20049;-88
2021/08/21 07:06:08;;;;;;;1.10;0.70;;;;;;;14.99;90.88;101395.22;5042546;28;20493;-89
2021/08/21 07:08:41;;;;;;;1.58;0.70;;;;;;;15.03;92.53;101396.25;5044117;28;20064;-87
2021/08/21 07:11:16;;;;;;;0.68;0.60;;;;;;;15.08;90.42;101398.94;5046970;28;20044;-88
2021/08/21 07:13:49;;;;;;;0.70;0.70;;;;;;;14.98;95.26;101401.00;5048554;28;20049;-88
2021/08/21 07:16:28;;;;;;;0.65;0.63;;;;;;;14.85;97.42;101402.50;5043584;28;20469;-87
2021/08/21 07:18:56;;;;;;;0.60;0.60;;;;;;;15.06;91.75;101395.66;5048028;28;20053;-88
2021/08/21 07:21:31;;;;;;;0.60;0.60;;;;;;;15.23;89.65;101394.38;5065017;28;20418;-87
2021/08/21 07:24:08;;;;;;;0.85;0.60;;;;;;;15.30;90.14;101392.91;5052468;28;20512;-86
2021/08/21 07:26:42;;;;;;;;;;;;;;;15.12;95.89;101408.22;5050911;28;20849;-87
2021/08/21 07:29:15;;;;;;;0.90;0.63;;;;;;;15.21;95.37;101402.09;5052969;28;20300;-89
2021/08/21 07:31:49;;;;;;;0.70;0.70;;;;;;;15.32;86.63;101409.06;5045806;28;20045;-88
2021/08/21 07:34:22;;;;;;;1.23;1.00;;;;;;;15.48;85.42;101409.69;5047260;28;20049;-87
2021/08/21 07:36:55;;;;;;;0.77;0.60;;;;;;;15.20;93.92;101414.97;5053693;28;20728;-88
2021/08/21 07:39:29;;;;;;;0.40;0.40;;;;;;;15.15;92.29;101412.31;5045793;28;20060;-87
2021/08/21 07:42:05;;;;;;;0.95;0.40;;;;;;;15.63;82.92;101417.72;5024240;28;20049;-87
2021/08/21 07:44:34;;;;;;;0.40;0.40;;;;;;;15.32;92.58;101408.25;5026958;28;20057;-86
2021/08/21 07:47:11;;;;;;;0.40;0.40;;;;;;;15.19;94.14;101412.53;5028732;28;20053;-89
2021/08/21 07:49:46;;;;;;;0.82;0.50;;;;;;;15.22;94.45;101421.00;5026602;28;20052;-88
2021/08/21 07:52:18;;;;;;;0.40;0.40;;;;;;;15.42;88.83;101414.41;5030346;28;20119;-87
2021/08/21 07:54:56;;;;;;;0.85;0.50;;;;;;;15.86;83.98;101417.94;5034268;28;20484;-87
2021/08/21 07:57:30;;;;;;;0.98;0.40;;;;;;;15.55;85.03;101423.84;5028820;28;20057;-89
2021/08/21 08:00:04;;;;;;;0.38;0.38;;;;;;;15.91;83.19;101411.56;5025897;28;20512;-87
2021/08/21 08:02:44;;;;;;;0.63;0.30;;;;;;;16.06;82.34;101413.25;5024998;28;20496;-88
2021/08/21 08:05:20;;;;;;;0.30;0.30;;;;;;;16.05;84.12;101415.19;5027009;28;20053;-88
2021/08/21 08:07:53;;;;;;;0.98;0.47;;;;;;;16.11;80.50;101416.72;5026330;28;20713;-88
2021/08/21 08:10:21;;;;;;;0.40;0.40;;;;;;;16.10;86.26;101415.13;5028448;28;20880;-86
2021/08/21 08:12:56;;;;;;;0.73;0.30;;;;;;;16.40;79.02;101420.38;5019751;28;20509;-88
2021/08/21 08:15:35;;;;;;;1.25;0.90;;;;;;;16.26;79.47;101417.59;5028366;28;20064;-86
2021/08/21 08:18:12;;;;;;;0.40;0.40;;;;;;;16.01;84.93;101407.88;5031634;28;21373;-87
2021/08/21 08:20:46;;;;;;;0.60;0.60;;;;;;;16.51;78.89;101412.78;5023485;28;20554;-86
2021/08/21 08:23:14;;;;;;;0.40;0.40;;;;;;;16.39;79.61;101405.03;5033460;28;20053;-86
2021/08/21 08:25:47;;;;;;;0.52;0.30;;;;;;;16.37;84.66;101415.50;5032086;28;20060;-85
2021/08/21 08:28:22;;;;;;;0.65;0.45;;;;;;;16.55;82.17;101395.38;5029361;28;20053;-89
2021/08/21 08:30:50;;;;;;;0.35;0.35;;;;;;;16.53;84.45;101413.28;5022831;28;20060;-85
2021/08/21 08:33:23;;;;;;;0.68;0.40;;;;;;;16.50;86.17;101420.19;5018894;28;20052;-85
2021/08/21 08:35:56;;;;;;;0.35;0.35;;;;;;;16.49;82.16;101413.91;5021984;28;20513;-88
2021/08/21 08:38:30;;;;;;;0.60;0.40;;;;;;;16.87;79.82;101418.44;5016990;28;21206;-86
2021/08/21 08:41:09;;;;;;;0.75;0.52;;;;;;;16.97;74.51;101414.69;4992124;28;20069;-87
2021/08/21 08:43:44;;;;;;;0.70;0.70;;;;;;;17.04;75.48;101414.28;5020010;28;20045;-87
2021/08/21 08:46:18;;;;;;;0.70;0.70;;;;;;;17.02;79.32;101411.03;5025225;28;20058;-86
2021/08/21 08:48:55;;;;;;;0.38;0.38;;;;;;;17.15;78.42;101405.53;5021661;28;20413;-86
2021/08/21 08:51:28;;;;;;;0.20;0.20;;;;;;;16.98;74.89;101419.88;5032757;28;20045;-89
2021/08/21 08:54:02;;;;;;;0.25;0.25;;;;;;;17.28;72.44;101425.09;5017440;28;20059;-87
2021/08/21 08:56:36;;;;;;;0.30;0.30;;;;;;;17.19;78.57;101429.66;5020543;28;20049;-91
2021/08/21 08:59:11;;;;;;;0.68;0.30;;;;;;;17.30;73.10;101426.41;5024263;28;20505;-86
2021/08/21 09:01:45;;;;;;;0.30;0.30;;;;;;;17.33;71.46;101414.78;5021386;28;20050;-87
2021/08/21 09:04:23;;;;;;;0.30;0.30;;;;;;;17.28;71.62;101419.59;5018813;28;20437;-88
2021/08/21 09:06:56;;;;;;;1.63;0.80;;;;;;;17.24;76.06;101427.63;5026189;28;20769;-87
2021/08/21 09:09:29;;;;;;;0.40;0.40;;;;;;;17.16;73.54;101426.41;5022323;28;20053;-86
2021/08/21 09:12:24;;;;;;;0.43;0.30;;;;;;;17.17;78.41;101424.47;5021546;28;20887;-87
2021/08/21 09:15:18;;;;;;;0.35;0.30;;;;;;;17.03;79.69;101423.66;5018049;28;21550;-88
2021/08/21 09:18:09;;;;;;;0.30;0.30;;;;;;;17.31;66.94;101425.25;5014779;28;20056;-86
2021/08/21 09:20:57;;;;;;;0.53;0.40;;;;;;;17.11;76.13;101432.03;5009323;28;20064;-86
2021/08/21 09:23:28;;;;;;;0.30;0.30;;;;;;;17.12;68.60;101436.41;5012429;28;20316;-88
2021/08/21 09:26:07;;;;;;;0.20;0.20;;;;;;;17.18;70.23;101423.38;5014912;28;20058;-87
2021/08/21 09:28:37;;;;;;;0.28;0.28;;;;;;;17.47;68.63;101425.78;5012543;28;20119;-86
2021/08/21 09:31:13;;;;;;;0.20;0.20;;;;;;;17.57;69.63;101429.44;5014187;28;20666;-86
2021/08/21 09:33:52;;;;;;;0.25;0.25;;;;;;;17.41;69.89;101421.47;5021798;28;20057;-88
2021/08/21 09:36:30;;;;;;;0.30;0.30;;;;;;;17.45;69.74;101419.75;5020579;28;20067;-87
2021/08/21 09:39:07;;;;;;;0.40;0.30;;;;;;;17.34;74.87;101421.09;5022767;28;20072;-88
2021/08/21 09:41:54;;;;;;;0.20;0.20;;;;;;;17.46;63.93;101424.13;4990675;28;20068;-87
2021/08/21 09:44:30;;;;;;;0.75;0.35;;;;;;;17.53;68.17;101418.22;5011670;28;20048;-87
2021/08/21 09:47:13;;;;;;;0.20;0.20;;;;;;;17.40;70.29;101422.63;5011605;28;20048;-87
2021/08/21 09:49:46;;;;;;;1.38;0.30;;;;;;;17.42;69.14;101417.63;5012159;28;20060;-86
2021/08/21 09:52:21;;;;;;;0.55;0.30;;;;;;;17.41;75.36;101418.72;5019555;28;20136;-87
2021/08/21 09:55:03;;;;;;;0.30;0.30;;;;;;;17.83;66.12;101402.94;5013600;28;20048;-87
2021/08/21 09:57:37;;;;;;;0.55;0.35;;;;;;;18.06;65.08;101419.50;5017307;28;20517;-88
2021/08/21 10:00:07;;;;;;;0.43;0.30;;;;;;;17.98;67.26;101411.97;5024547;28;20057;-88
2021/08/21 10:02:45;;;;;;;0.55;0.30;;;;;;;17.82;70.11;101417.00;5014989;28;20044;-89
2021/08/21 10:05:18;;;;;;;0.30;0.30;;;;;;;17.92;64.90;101413.25;5019469;28;20060;-87
2021/08/21 10:07:58;;;;;;;0.35;0.35;;;;;;;17.81;69.00;101412.63;5010982;28;20768;-87
2021/08/21 10:10:35;;;;;;;0.45;0.30;;;;;;;17.76;68.97;101408.06;5013083;28;20045;-87
2021/08/21 10:13:10;;;;;;;0.38;0.38;;;;;;;17.83;71.02;101402.13;5009076;28;20754;-86
2021/08/21 10:15:43;;;;;;;0.28;0.28;;;;;;;18.18;69.80;101408.72;5007671;28;20056;-86
2021/08/21 10:18:18;;;;;;;2.15;1.60;;;;;;;18.14;68.98;101410.47;5011075;28;20052;-87
2021/08/21 10:21:17;;;;;;;0.40;0.40;;;;;;;17.90;73.48;101407.19;5016396;28;20057;-87
2021/08/21 10:23:53;;;;;;;0.73;0.30;;;;;;;17.88;69.88;101398.44;5022597;28;20053;-88
2021/08/21 10:26:37;;;;;;;0.40;0.40;;;;;;;17.96;71.88;101394.97;5012721;28;20057;-86
2021/08/21 10:29:12;;;;;;;0.30;0.30;;;;;;;18.04;73.41;101405.22;5012139;28;21381;-86
2021/08/21 10:31:47;;;;;;;0.30;0.30;;;;;;;18.43;69.37;101395.41;5013099;28;20060;-86
2021/08/21 10:34:22;;;;;;;0.30;0.30;;;;;;;18.19;64.11;101396.59;5023175;28;20493;-85
2021/08/21 10:36:57;;;;;;;0.40;0.30;;;;;;;18.27;65.29;101400.53;5016823;28;20063;-86
2021/08/21 10:39:36;;;;;;;0.40;0.40;;;;;;;18.16;71.15;101399.97;5020323;28;21250;-87
2021/08/21 10:42:25;;;;;;;0.43;0.40;;;;;;;18.40;70.72;101400.78;5023778;28;20052;-86
2021/08/21 10:44:59;;;;;;;0.30;0.30;;;;;;;18.27;70.38;101399.69;5022343;28;20052;-87
2021/08/21 10:47:38;;;;;;;0.40;0.35;;;;;;;18.42;65.25;101393.81;5015823;28;21300;-87
2021/08/21 10:50:31;;;;;;;0.30;0.30;;;;;;;18.39;73.91;101394.44;5018194;28;20072;-87
2021/08/21 10:53:01;;;;;;;0.30;0.30;;;;;;;18.49;70.29;101398.84;5012366;28;20053;-86
2021/08/21 10:55:40;;;;;;;0.20;0.20;;;;;;;18.43;70.69;101400.94;5015775;28;20053;-87
2021/08/21 10:58:11;;;;;;;1.23;0.40;;;;;;;18.31;63.80;101389.69;5023399;28;20057;-88
2021/08/21 11:00:48;;;;;;;0.30;0.30;;;;;;;18.15;67.36;101398.34;5023125;28;20053;-86
2021/08/21 11:03:43;;;;;;;0.50;0.32;;;;;;;18.45;69.48;101404.19;5022017;28;20053;-86
2021/08/21 11:06:15;;;;;;;0.38;0.30;;;;;;;18.41;70.41;101405.97;5015239;28;20053;-86
2021/08/21 11:09:05;;;;;;;0.68;0.30;;;;;;;18.46;65.99;101402.25;5021489;28;20687;-87
2021/08/21 11:11:45;;;;;;;0.20;0.20;;;;;;;18.46;68.33;101405.84;5017327;28;20064;-85
2021/08/21 11:14:35;;;;;;;0.30;0.30;;;;;;;18.56;62.82;101390.13;5019112;28;20053;-86
2021/08/21 11:17:13;;;;;;;0.20;0.20;;;;;;;18.65;61.26;101393.75;5019448;28;20052;-87
2021/08/21 11:19:46;;;;;;;0.30;0.30;;;;;;;18.44;71.15;101399.00;5024255;28;20488;-85
2021/08/21 11:22:31;;;;;;;0.22;0.22;;;;;;;18.57;66.87;101398.09;5023824;28;20057;-87
2021/08/21 11:25:10;;;;;;;0.30;0.30;;;;;;;18.50;65.68;101395.78;5020618;28;20048;-86
2021/08/21 11:27:45;;;;;;;0.60;0.60;;;;;;;18.64;68.95;101406.75;5019709;28;20048;-87
2021/08/21 11:30:24;;;;;;;0.40;0.30;;;;;;;18.76;68.86;101402.56;5021127;28;20561;-87
2021/08/21 11:33:00;;;;;;;0.82;0.40;;;;;;;18.72;67.11;101391.34;5017102;28;20049;-86
2021/08/21 11:35:32;;;;;;;0.30;0.30;;;;;;;18.91;64.39;101401.38;5015867;28;20065;-86
2021/08/21 11:38:10;;;;;;;1.17;0.40;;;;;;;18.91;67.14;101395.84;5016957;28;20044;-85
2021/08/21 11:40:45;;;;;;;0.40;0.38;;;;;;;19.04;64.99;101397.66;4991754;28;20045;-87
2021/08/21 11:43:15;;;;;;;0.30;0.30;;;;;;;19.34;60.57;101384.09;5017322;28;20057;-84
2021/08/21 11:46:11;;;;;;;0.30;0.30;;;;;;;19.07;60.52;101390.69;5016879;28;20049;-86
2021/08/21 11:48:40;;;;;;;0.20;0.20;;;;;;;19.10;63.42;101381.75;5017100;28;21500;-87
2021/08/21 11:51:10;;;;;;;0.20;0.20;;;;;;;18.99;61.32;101384.84;5035036;28;20433;-88
2021/08/21 11:53:50;;;;;;;0.30;0.30;;;;;;;19.00;63.37;101371.84;5022801;28;20057;-87
2021/08/21 11:56:23;;;;;;;0.65;0.43;;;;;;;19.22;63.92;101376.44;5019271;28;20053;-86
2021/08/21 11:59:06;;;;;;;0.30;0.30;;;;;;;19.12;65.73;101374.78;5026809;28;20052;-86
2021/08/21 12:01:40;;;;;;;0.20;0.20;;;;;;;18.91;70.69;101387.56;5038186;28;20045;-85